createdAt,value
2016-01-03T18:53:45.817Z,63
2016-01-03T18:53:58.926Z,62
2016-01-03T18:54:12.160Z,62
2016-01-03T18:54:25.426Z,62
2016-01-03T18:54:38.647Z,62
2016-01-03T18:54:51.850Z,62
2016-01-03T18:55:05.053Z,62
2016-01-03T18:55:18.334Z,62
2016-01-03T18:55:31.509Z,62
2016-01-03T18:55:44.759Z,62
2016-01-03T18:55:57.931Z,62
2016-01-03T18:56:11.087Z,63
2016-01-03T18:56:24.353Z,63
2016-01-03T18:56:37.511Z,63
2016-01-03T18:56:50.621Z,63
2016-01-03T18:57:03.933Z,62
2016-01-03T18:57:17.089Z,62
2016-01-03T18:57:30.341Z,62
2016-01-03T18:57:43.544Z,62
2016-01-03T18:57:56.748Z,62
2016-01-03T18:58:09.982Z,62
2016-01-03T18:58:23.701Z,62
2016-01-03T18:58:36.829Z,62
2016-01-03T18:58:50.079Z,63
2016-01-03T18:59:03.407Z,63
2016-01-03T18:59:16.501Z,62
2016-01-03T18:59:29.723Z,62
2016-01-03T18:59:42.942Z,62
2016-01-03T18:59:56.067Z,62
2016-01-03T19:00:09.411Z,62
2016-01-03T19:00:22.551Z,62
2016-01-03T19:00:35.803Z,62
2016-01-03T19:00:49.038Z,62
2016-01-03T19:01:02.194Z,62
2016-01-03T19:01:15.335Z,62
2016-01-03T19:01:28.710Z,62
2016-01-03T19:01:41.869Z,61
2016-01-03T19:01:55.088Z,61
2016-01-03T19:02:08.822Z,61
2016-01-03T19:02:22.228Z,61
2016-01-03T19:02:35.387Z,61
2016-01-03T19:02:48.683Z,61
2016-01-03T19:03:01.871Z,61
2016-01-03T19:03:15.058Z,61
2016-01-03T19:03:28.683Z,61
2016-01-03T19:03:41.905Z,61
2016-01-03T19:03:55.108Z,61
2016-01-03T19:04:08.202Z,61
2016-01-03T19:04:21.436Z,61
2016-01-03T19:04:34.627Z,61
2016-01-03T19:04:47.721Z,61
2016-01-03T19:05:01.330Z,61
2016-01-03T19:05:14.564Z,61
2016-01-03T19:05:27.658Z,61
2016-01-03T19:05:41.301Z,61
2016-01-03T19:05:54.520Z,61
2016-01-03T19:06:07.723Z,61
2016-01-03T19:06:20.879Z,61
2016-01-03T19:06:34.117Z,61
2016-01-03T19:06:47.274Z,61
2016-01-03T19:07:00.602Z,61
2016-01-03T19:07:13.758Z,61
2016-01-03T19:07:26.930Z,61
2016-01-03T19:07:40.026Z,61
2016-01-03T19:07:53.166Z,61
2016-01-03T19:08:07.229Z,61
2016-01-03T19:08:20.401Z,61
2016-01-03T19:08:33.544Z,61
2016-01-03T19:08:46.716Z,61
2016-01-03T19:08:59.904Z,61
2016-01-03T19:09:13.107Z,61
2016-01-03T19:09:26.216Z,61
2016-01-03T19:09:39.374Z,61
2016-01-03T19:09:52.577Z,61
2016-01-03T19:10:05.702Z,61
2016-01-03T19:10:18.843Z,61
2016-01-03T19:10:32.065Z,61
2016-01-03T19:10:45.159Z,61
2016-01-03T19:10:58.284Z,61
2016-01-03T19:11:11.502Z,61
2016-01-03T19:11:24.643Z,60
2016-01-03T19:11:37.864Z,60
2016-01-03T19:11:50.911Z,60
2016-01-03T19:12:04.036Z,60
2016-01-03T19:12:17.223Z,60
2016-01-03T19:12:30.364Z,60
2016-01-03T19:12:43.477Z,60
2016-01-03T19:12:56.696Z,60
2016-01-03T19:13:09.883Z,61
2016-01-03T19:13:22.977Z,61
2016-01-03T19:13:36.182Z,61
2016-01-03T19:13:49.385Z,61
2016-01-03T19:14:02.557Z,61
2016-01-03T19:14:15.760Z,61
2016-01-03T19:14:28.854Z,61
2016-01-03T19:14:42.545Z,61
2016-01-03T19:14:55.685Z,61
2016-01-03T19:15:08.748Z,61
2016-01-03T19:15:22.076Z,61
2016-01-03T19:15:35.265Z,61
2016-01-03T19:15:48.406Z,61
2016-01-03T19:16:01.625Z,61
2016-01-03T19:16:14.812Z,61
2016-01-03T19:16:27.875Z,61
2016-01-03T19:16:41.565Z,61
2016-01-03T19:16:54.768Z,61
2016-01-03T19:17:07.956Z,61
2016-01-03T19:17:21.112Z,61
2016-01-03T19:17:34.349Z,61
2016-01-03T19:17:50.178Z,61
2016-01-03T19:18:10.849Z,61
2016-01-03T19:18:24.365Z,61
2016-01-03T19:18:37.508Z,61
2016-01-03T19:18:50.758Z,61
2016-01-03T19:19:03.820Z,61
2016-01-03T19:19:16.976Z,61
2016-01-03T19:19:30.226Z,63
2016-01-03T19:19:43.340Z,62
2016-01-03T19:19:56.465Z,61
2016-01-03T19:20:09.621Z,61
2016-01-03T19:20:22.840Z,61
2016-01-03T19:20:36.857Z,61
2016-01-03T19:20:55.545Z,61
2016-01-03T19:21:09.061Z,61
2016-01-03T19:21:22.311Z,60
2016-01-03T19:21:35.407Z,60
2016-01-03T19:21:48.954Z,60
2016-01-03T19:22:02.282Z,60
2016-01-03T19:22:15.954Z,60
2016-01-03T19:22:29.048Z,60
2016-01-03T19:22:42.395Z,60
2016-01-03T19:22:55.598Z,60
2016-01-03T19:23:08.754Z,60
2016-01-03T19:23:21.863Z,60
2016-01-03T19:23:34.988Z,60
2016-01-03T19:23:53.162Z,60
2016-01-03T19:24:06.772Z,60
2016-01-03T19:24:19.881Z,60
2016-01-03T19:24:33.100Z,60
2016-01-03T19:24:46.243Z,60
2016-01-03T19:25:00.118Z,60
2016-01-03T19:25:17.743Z,60
2016-01-03T19:25:31.493Z,60
2016-01-03T19:25:44.667Z,60
2016-01-03T19:25:57.902Z,60
2016-01-03T19:26:11.058Z,60
2016-01-03T19:26:24.261Z,60
2016-01-03T19:26:37.417Z,60
2016-01-03T19:26:50.530Z,60
2016-01-03T19:27:03.733Z,60
2016-01-03T19:27:16.952Z,60
2016-01-03T19:27:30.108Z,60
2016-01-03T19:27:43.376Z,60
2016-01-03T19:27:56.595Z,60
2016-01-03T19:28:09.705Z,60
2016-01-03T19:28:22.908Z,60
2016-01-03T19:28:36.361Z,60
2016-01-03T19:28:50.020Z,60
2016-01-03T19:29:03.723Z,60
2016-01-03T19:29:16.958Z,60
2016-01-03T19:29:30.176Z,60
2016-01-03T19:29:43.319Z,60
2016-01-03T19:29:56.585Z,60
2016-01-03T19:30:09.866Z,61
2016-01-03T19:30:24.194Z,62
2016-01-03T19:30:37.991Z,62
2016-01-03T19:30:53.323Z,62
2016-01-03T19:31:08.667Z,61
2016-01-03T19:31:23.792Z,61
2016-01-03T19:31:39.042Z,61
2016-01-03T19:31:54.653Z,61
2016-01-03T19:32:11.122Z,61
2016-01-03T19:32:28.887Z,61
2016-01-03T19:32:46.750Z,61
2016-01-03T19:33:02.828Z,61
2016-01-03T19:33:17.875Z,61
2016-01-03T19:33:33.328Z,61
2016-01-03T19:33:48.861Z,61
2016-01-03T19:34:06.252Z,61
2016-01-03T19:34:23.111Z,60
2016-01-03T19:34:48.849Z,60
2016-01-03T19:35:08.724Z,60
2016-01-03T19:35:25.380Z,60
2016-01-03T19:35:39.989Z,60
2016-01-03T19:35:59.242Z,60
2016-01-03T19:36:14.977Z,60
2016-01-03T19:36:30.773Z,60
2016-01-03T19:36:45.558Z,60
2016-01-03T19:37:01.214Z,60
2016-01-03T19:37:20.855Z,60
2016-01-03T19:37:38.401Z,59
2016-01-03T19:37:55.857Z,60
2016-01-03T19:38:10.919Z,60
2016-01-03T19:38:26.310Z,60
2016-01-03T19:38:41.044Z,60
2016-01-03T19:38:56.391Z,60
2016-01-03T19:39:11.610Z,60
2016-01-03T19:39:26.266Z,60
2016-01-03T19:39:40.797Z,60
2016-01-03T19:39:57.144Z,60
2016-01-03T19:40:15.034Z,60
2016-01-03T19:40:32.441Z,60
2016-01-03T19:40:49.990Z,60
2016-01-03T19:41:07.052Z,60
2016-01-03T19:41:22.052Z,60
2016-01-03T19:41:37.958Z,60
2016-01-03T19:41:53.102Z,60
2016-01-03T19:42:08.602Z,60
2016-01-03T19:42:25.446Z,60
2016-01-03T19:42:40.321Z,60
2016-01-03T19:42:55.682Z,60
2016-01-03T19:43:10.666Z,60
2016-01-03T19:43:26.151Z,60
2016-01-03T19:43:40.698Z,60
2016-01-03T19:43:56.467Z,60
2016-01-03T19:44:10.780Z,60
2016-01-03T19:44:26.514Z,60
2016-01-03T19:44:41.030Z,60
2016-01-03T19:44:58.094Z,60
2016-01-03T19:45:13.532Z,60
2016-01-03T19:45:28.454Z,60
2016-01-03T19:45:43.891Z,60
2016-01-03T19:45:58.941Z,60
2016-01-03T19:46:14.425Z,60
2016-01-03T19:46:29.535Z,60
2016-01-03T19:46:44.597Z,60
2016-01-03T19:47:00.068Z,60
2016-01-03T19:47:14.959Z,60
2016-01-03T19:47:30.068Z,60
2016-01-03T19:47:45.193Z,60
2016-01-03T19:47:59.430Z,60
2016-01-03T19:48:15.055Z,59
2016-01-03T19:48:29.618Z,59
2016-01-03T19:48:45.087Z,59
2016-01-03T19:49:00.323Z,59
2016-01-03T19:49:15.292Z,59
2016-01-03T19:49:31.057Z,59
2016-01-03T19:49:45.745Z,59
2016-01-03T19:50:01.029Z,59
2016-01-03T19:50:16.904Z,59
2016-01-03T19:50:32.404Z,59
2016-01-03T19:50:48.126Z,59
2016-01-03T19:51:03.220Z,59
2016-01-03T19:51:17.251Z,59
2016-01-03T19:51:37.157Z,59
2016-01-03T19:51:51.816Z,59
2016-01-03T19:52:07.691Z,59
2016-01-03T19:52:22.738Z,59
2016-01-03T19:52:37.488Z,59
2016-01-03T19:52:51.882Z,59
2016-01-03T19:53:08.804Z,59
2016-01-03T19:53:23.866Z,59
2016-01-03T19:53:38.898Z,59
2016-01-03T19:53:53.307Z,59
2016-01-03T19:54:08.682Z,59
2016-01-03T19:54:23.510Z,59
2016-01-03T19:54:38.666Z,59
2016-01-03T19:54:53.543Z,59
2016-01-03T19:55:08.887Z,59
2016-01-03T19:55:23.762Z,59
2016-01-03T19:55:39.262Z,59
2016-01-03T19:55:55.437Z,59
2016-01-03T19:56:09.968Z,59
2016-01-03T19:56:25.765Z,59
2016-01-03T19:56:40.593Z,59
2016-01-03T19:56:56.376Z,59
2016-01-03T19:57:11.017Z,59
2016-01-03T19:57:26.658Z,59
2016-01-03T19:57:41.704Z,59
2016-01-03T19:57:56.770Z,59
2016-01-03T19:58:12.473Z,59
2016-01-03T19:58:27.270Z,59
2016-01-03T19:58:42.004Z,59
2016-01-03T19:58:57.757Z,59
2016-01-03T19:59:13.398Z,59
2016-01-03T19:59:28.507Z,59
2016-01-03T19:59:44.085Z,59
2016-01-03T19:59:58.681Z,59
2016-01-03T20:00:14.353Z,59
2016-01-03T20:00:29.431Z,59
2016-01-03T20:00:44.478Z,59
2016-01-03T20:00:59.919Z,59
2016-01-03T20:01:14.872Z,59
2016-01-03T20:01:29.778Z,59
2016-01-03T20:01:44.997Z,59
2016-01-03T20:01:59.750Z,59
2016-01-03T20:02:14.953Z,59
2016-01-03T20:02:30.297Z,59
2016-01-03T20:02:44.968Z,59
2016-01-03T20:03:00.502Z,59
2016-01-03T20:03:15.470Z,59
2016-01-03T20:03:30.736Z,59
2016-01-03T20:03:45.580Z,59
2016-01-03T20:04:00.974Z,59
2016-01-03T20:04:15.693Z,59
2016-01-03T20:04:31.990Z,59
2016-01-03T20:04:47.678Z,59
2016-01-03T20:05:03.273Z,59
2016-01-03T20:05:18.445Z,59
2016-01-03T20:05:33.133Z,59
2016-01-03T20:05:48.742Z,59
2016-01-03T20:06:03.197Z,59
2016-01-03T20:06:18.838Z,59
2016-01-03T20:06:33.650Z,59
2016-01-03T20:06:48.947Z,59
2016-01-03T20:07:03.638Z,59
2016-01-03T20:07:18.497Z,59
2016-01-03T20:07:33.403Z,59
2016-01-03T20:07:49.044Z,59
2016-01-03T20:08:04.375Z,59
2016-01-03T20:08:20.156Z,58
2016-01-03T20:08:34.656Z,59
2016-01-03T20:08:50.078Z,59
2016-01-03T20:09:04.596Z,59
2016-01-03T20:09:20.361Z,59
2016-01-03T20:09:34.830Z,59
2016-01-03T20:09:49.924Z,59
2016-01-03T20:10:04.443Z,59
2016-01-03T20:10:20.005Z,59
2016-01-03T20:10:35.083Z,59
2016-01-03T20:10:50.161Z,59
2016-01-03T20:11:04.961Z,59
2016-01-03T20:11:24.383Z,58
2016-01-03T20:11:39.446Z,59
2016-01-03T20:11:55.355Z,58
2016-01-03T20:12:10.730Z,58
2016-01-03T20:12:26.464Z,58
2016-01-03T20:12:41.480Z,58
2016-01-03T20:12:56.342Z,58
2016-01-03T20:13:11.686Z,58
2016-01-03T20:13:26.920Z,58
2016-01-03T20:13:41.764Z,58
2016-01-03T20:13:56.735Z,58
2016-01-03T20:14:11.250Z,58
2016-01-03T20:14:27.391Z,58
2016-01-03T20:14:42.516Z,58
2016-01-03T20:14:57.644Z,58
2016-01-03T20:15:12.722Z,58
2016-01-03T20:15:27.128Z,58
2016-01-03T20:15:41.707Z,58
2016-01-03T20:15:57.146Z,57
2016-01-03T20:16:11.771Z,57
2016-01-03T20:16:27.021Z,57
2016-01-03T20:16:42.162Z,57
2016-01-03T20:16:57.009Z,57
2016-01-03T20:17:11.431Z,57
2016-01-03T20:17:26.853Z,57
2016-01-03T20:17:41.775Z,57
2016-01-03T20:17:56.980Z,57
2016-01-03T20:18:12.418Z,57
2016-01-03T20:18:27.168Z,57
2016-01-03T20:18:43.090Z,57
2016-01-03T20:18:57.702Z,57
2016-01-03T20:19:13.468Z,57
2016-01-03T20:19:28.530Z,57
2016-01-03T20:19:44.046Z,57
2016-01-03T20:19:58.533Z,57
2016-01-03T20:20:13.939Z,57
2016-01-03T20:20:32.986Z,57
2016-01-03T20:20:47.564Z,57
2016-01-03T20:21:03.191Z,57
2016-01-03T20:21:18.957Z,57
2016-01-03T20:21:33.223Z,57
2016-01-03T20:21:48.848Z,57
2016-01-03T20:22:04.991Z,57
2016-01-03T20:22:20.616Z,57
2016-01-03T20:22:35.382Z,57
2016-01-03T20:22:51.038Z,57
2016-01-03T20:23:06.134Z,57
2016-01-03T20:23:21.259Z,57
2016-01-03T20:23:36.556Z,57
2016-01-03T20:23:51.649Z,57
2016-01-03T20:24:06.777Z,57
2016-01-03T20:24:21.434Z,57
2016-01-03T20:24:36.887Z,57
2016-01-03T20:24:52.184Z,57
2016-01-03T20:25:07.530Z,57
2016-01-03T20:25:22.015Z,57
2016-01-03T20:25:37.515Z,57
2016-01-03T20:25:52.577Z,57
2016-01-03T20:26:07.799Z,57
2016-01-03T20:26:23.049Z,57
2016-01-03T20:26:38.658Z,57
2016-01-03T20:26:53.533Z,57
2016-01-03T20:27:08.661Z,57
2016-01-03T20:27:24.411Z,57
2016-01-03T20:27:38.771Z,57
2016-01-03T20:27:53.630Z,57
2016-01-03T20:28:09.601Z,57
2016-01-03T20:28:24.585Z,57
2016-01-03T20:28:39.960Z,57
2016-01-03T20:28:56.492Z,57
2016-01-03T20:29:11.432Z,57
2016-01-03T20:29:27.088Z,57
2016-01-03T20:29:43.151Z,57
2016-01-03T20:29:57.979Z,57
2016-01-03T20:30:13.623Z,57
2016-01-03T20:30:28.404Z,57
2016-01-03T20:30:43.904Z,57
2016-01-03T20:30:58.841Z,57
2016-01-03T20:31:14.203Z,57
2016-01-03T20:31:28.921Z,57
2016-01-03T20:31:44.421Z,57
2016-01-03T20:31:59.453Z,56
2016-01-03T20:32:15.237Z,56
2016-01-03T20:32:31.112Z,56
2016-01-03T20:32:45.784Z,56
2016-01-03T20:33:01.865Z,56
2016-01-03T20:33:16.287Z,56
2016-01-03T20:33:31.771Z,56
2016-01-03T20:33:46.787Z,56
2016-01-03T20:34:02.414Z,56
2016-01-03T20:34:17.758Z,56
2016-01-03T20:34:32.523Z,56
2016-01-03T20:34:46.789Z,55
2016-01-03T20:35:02.104Z,55
2016-01-03T20:35:17.057Z,55
2016-01-03T20:35:32.417Z,55
2016-01-03T20:35:47.292Z,55
2016-01-03T20:36:02.684Z,55
2016-01-03T20:36:18.044Z,55
2016-01-03T20:36:33.138Z,55
2016-01-03T20:36:48.653Z,54
2016-01-03T20:37:03.719Z,55
2016-01-03T20:37:18.859Z,54
2016-01-03T20:37:33.859Z,54
2016-01-03T20:37:49.062Z,54
2016-01-03T20:38:04.035Z,54
2016-01-03T20:38:19.270Z,54
2016-01-03T20:38:34.395Z,54
2016-01-03T20:38:49.738Z,54
2016-01-03T20:39:04.631Z,54
2016-01-03T20:39:19.772Z,54
2016-01-03T20:39:34.428Z,54
2016-01-03T20:39:50.131Z,54
2016-01-03T20:40:04.492Z,54
2016-01-03T20:40:20.117Z,54
2016-01-03T20:40:34.602Z,54
2016-01-03T20:40:50.039Z,53
2016-01-03T20:41:04.778Z,53
2016-01-03T20:41:24.168Z,54
2016-01-03T20:41:40.668Z,53
2016-01-03T20:41:56.199Z,53
2016-01-03T20:42:10.655Z,53
2016-01-03T20:42:26.248Z,53
2016-01-03T20:42:41.170Z,53
2016-01-03T20:42:56.576Z,53
2016-01-03T20:43:11.783Z,53
2016-01-03T20:43:26.533Z,53
2016-01-03T20:43:41.033Z,53
2016-01-03T20:43:56.345Z,53
2016-01-03T20:44:10.786Z,53
2016-01-03T20:44:26.161Z,53
2016-01-03T20:44:41.192Z,53
2016-01-03T20:44:56.520Z,53
2016-01-03T20:45:17.944Z,53
2016-01-03T20:45:33.225Z,53
2016-01-03T20:45:47.631Z,53
2016-01-03T20:46:03.366Z,54
2016-01-03T20:46:17.416Z,53
2016-01-03T20:46:32.462Z,53
2016-01-03T20:46:45.666Z,53
2016-01-03T20:46:59.009Z,53
2016-01-03T20:47:12.152Z,53
2016-01-03T20:47:26.605Z,53
2016-01-03T20:47:40.371Z,53
2016-01-03T20:47:53.433Z,53
2016-01-03T20:48:06.624Z,53
2016-01-03T20:48:19.842Z,53
2016-01-03T20:48:33.014Z,53
2016-01-03T20:48:46.171Z,53
2016-01-03T20:48:59.483Z,53
2016-01-03T20:49:12.689Z,53
2016-01-03T20:49:29.361Z,53
2016-01-03T20:49:44.595Z,53
2016-01-03T20:49:59.189Z,54
2016-01-03T20:50:12.286Z,54
2016-01-03T20:50:26.317Z,54
2016-01-03T20:50:39.427Z,54
2016-01-03T20:50:53.333Z,53
2016-01-03T20:51:06.632Z,53
2016-01-03T20:51:19.757Z,53
2016-01-03T20:51:33.116Z,53
2016-01-03T20:51:46.319Z,53
2016-01-03T20:52:00.069Z,53
2016-01-03T20:52:13.400Z,53
2016-01-03T20:52:26.650Z,53
2016-01-03T20:52:39.744Z,53
2016-01-03T20:52:52.916Z,53
2016-01-03T20:53:06.166Z,53
2016-01-03T20:53:19.294Z,53
2016-01-03T20:53:32.450Z,53
2016-01-03T20:53:48.341Z,53
2016-01-03T20:54:02.450Z,53
2016-01-03T20:54:15.844Z,54
2016-01-03T20:54:29.047Z,54
2016-01-03T20:54:42.734Z,54
2016-01-03T20:54:56.141Z,54
2016-01-03T20:55:09.252Z,54
2016-01-03T20:55:22.690Z,54
2016-01-03T20:55:35.908Z,54
2016-01-03T20:55:49.236Z,54
2016-01-03T20:56:02.361Z,54
2016-01-03T20:56:15.630Z,54
2016-01-03T20:56:29.083Z,54
2016-01-03T20:56:42.380Z,53
2016-01-03T20:56:59.880Z,54
2016-01-03T20:57:14.008Z,53
2016-01-03T20:57:27.227Z,53
2016-01-03T20:57:40.586Z,53
2016-01-03T20:57:54.602Z,54
2016-01-03T20:58:07.930Z,53
2016-01-03T20:58:21.073Z,53
2016-01-03T20:58:34.229Z,53
2016-01-03T20:58:47.494Z,53
2016-01-03T20:59:00.869Z,53
2016-01-03T20:59:14.138Z,53
2016-01-03T20:59:28.122Z,53
2016-01-03T20:59:41.466Z,53
2016-01-03T20:59:54.841Z,53
2016-01-03T21:00:08.810Z,53
2016-01-03T21:00:21.937Z,54
2016-01-03T21:00:35.156Z,54
2016-01-03T21:00:48.328Z,54
2016-01-03T21:01:01.640Z,54
2016-01-03T21:01:14.988Z,54
2016-01-03T21:01:28.207Z,54
2016-01-03T21:01:41.441Z,54
2016-01-03T21:01:55.785Z,54
2016-01-03T21:02:09.019Z,54
2016-01-03T21:02:22.224Z,54
2016-01-03T21:02:35.396Z,54
2016-01-03T21:02:48.490Z,54
2016-01-03T21:03:01.693Z,54
2016-01-03T21:03:14.946Z,54
2016-01-03T21:03:28.040Z,54
2016-01-03T21:03:41.274Z,54
2016-01-03T21:03:54.555Z,54
2016-01-03T21:04:07.665Z,54
2016-01-03T21:04:20.949Z,54
2016-01-03T21:04:34.199Z,54
2016-01-03T21:04:48.402Z,54
2016-01-03T21:05:01.605Z,54
2016-01-03T21:05:14.685Z,54
2016-01-03T21:05:27.951Z,54
2016-01-03T21:05:41.201Z,54
2016-01-03T21:05:54.295Z,54
2016-01-03T21:06:07.404Z,54
2016-01-03T21:06:20.657Z,54
2016-01-03T21:06:33.876Z,54
2016-01-03T21:06:47.001Z,54
2016-01-03T21:07:00.282Z,54
2016-01-03T21:07:15.457Z,54
2016-01-03T21:07:28.691Z,54
2016-01-03T21:07:41.848Z,54
2016-01-03T21:07:55.488Z,54
2016-01-03T21:08:10.926Z,54
2016-01-03T21:08:24.115Z,54
2016-01-03T21:08:37.271Z,54
2016-01-03T21:08:51.350Z,54
2016-01-03T21:09:04.646Z,54
2016-01-03T21:09:18.806Z,54
2016-01-03T21:09:32.009Z,54
2016-01-03T21:09:45.212Z,55
2016-01-03T21:10:00.649Z,55
2016-01-03T21:10:13.980Z,55
2016-01-03T21:10:27.276Z,55
2016-01-03T21:10:40.370Z,55
2016-01-03T21:10:53.776Z,55
2016-01-03T21:11:07.386Z,55
2016-01-03T21:11:20.467Z,55
2016-01-03T21:11:33.670Z,55
2016-01-03T21:11:46.936Z,55
2016-01-03T21:12:00.123Z,55
2016-01-03T21:12:13.251Z,55
2016-01-03T21:12:26.470Z,55
2016-01-03T21:12:40.064Z,55
2016-01-03T21:12:54.298Z,55
2016-01-03T21:13:07.548Z,55
2016-01-03T21:13:20.785Z,55
2016-01-03T21:13:33.973Z,55
2016-01-03T21:13:47.082Z,55
2016-01-03T21:14:02.192Z,55
2016-01-03T21:14:17.100Z,55
2016-01-03T21:14:30.241Z,55
2016-01-03T21:14:44.803Z,55
2016-01-03T21:14:58.366Z,55
2016-01-03T21:15:13.759Z,55
2016-01-03T21:15:27.915Z,55
2016-01-03T21:15:44.681Z,55
2016-01-03T21:16:00.181Z,55
2016-01-03T21:16:13.309Z,55
2016-01-03T21:16:28.262Z,55
2016-01-03T21:16:41.918Z,55
2016-01-03T21:16:55.278Z,55
2016-01-03T21:17:08.528Z,55
2016-01-03T21:17:21.639Z,55
2016-01-03T21:17:35.217Z,55
2016-01-03T21:17:48.920Z,55
2016-01-03T21:18:02.045Z,55
2016-01-03T21:18:15.315Z,55
2016-01-03T21:18:28.581Z,55
2016-01-03T21:18:41.862Z,55
2016-01-03T21:18:55.924Z,55
2016-01-03T21:19:09.190Z,55
2016-01-03T21:19:22.395Z,55
2016-01-03T21:19:35.676Z,55
2016-01-03T21:19:48.817Z,55
2016-01-03T21:20:02.005Z,55
2016-01-03T21:20:15.351Z,55
2016-01-03T21:20:28.617Z,55
2016-01-03T21:20:44.539Z,55
2016-01-03T21:20:58.773Z,55
2016-01-03T21:21:12.461Z,55
2016-01-03T21:21:25.744Z,55
2016-01-03T21:21:39.041Z,55
2016-01-03T21:21:52.275Z,55
2016-01-03T21:22:05.400Z,55
2016-01-03T21:22:21.106Z,55
2016-01-03T21:22:38.684Z,55
2016-01-03T21:22:54.150Z,55
2016-01-03T21:23:08.343Z,55
2016-01-03T21:23:22.532Z,55
2016-01-03T21:23:37.735Z,55
2016-01-03T21:23:51.735Z,55
2016-01-03T21:24:04.938Z,55
2016-01-03T21:24:18.269Z,55
2016-01-03T21:24:31.582Z,55
2016-01-03T21:24:45.034Z,55
2016-01-03T21:24:58.641Z,55
2016-01-03T21:25:13.864Z,55
2016-01-03T21:25:29.242Z,55
2016-01-03T21:25:48.680Z,55
2016-01-03T21:26:02.398Z,55
2016-01-03T21:26:16.964Z,55
2016-01-03T21:26:31.105Z,55
2016-01-03T21:26:44.261Z,55
2016-01-03T21:27:03.136Z,55
2016-01-03T21:27:18.388Z,55
2016-01-03T21:27:31.466Z,55
2016-01-03T21:27:51.607Z,55
2016-01-03T21:28:06.903Z,55
2016-01-03T21:28:24.470Z,55
2016-01-03T21:28:44.329Z,55
2016-01-03T21:28:58.986Z,55
2016-01-03T21:29:12.845Z,55
2016-01-03T21:29:26.050Z,55
2016-01-03T21:29:40.972Z,55
2016-01-03T21:29:57.378Z,55
2016-01-03T21:30:10.581Z,55
2016-01-03T21:30:25.708Z,55
2016-01-03T21:30:40.240Z,55
2016-01-03T21:30:53.505Z,55
2016-01-03T21:31:06.661Z,55
2016-01-03T21:31:19.821Z,55
2016-01-03T21:31:33.071Z,55
2016-01-03T21:31:46.258Z,55
2016-01-03T21:31:59.493Z,55
2016-01-03T21:32:12.649Z,55
2016-01-03T21:32:26.839Z,55
2016-01-03T21:32:40.121Z,55
2016-01-03T21:33:02.230Z,56
2016-01-03T21:33:15.542Z,56
2016-01-03T21:33:28.920Z,55
2016-01-03T21:33:42.077Z,55
2016-01-03T21:33:55.280Z,55
2016-01-03T21:34:08.624Z,55
2016-01-03T21:34:21.877Z,56
2016-01-03T21:34:35.064Z,55
2016-01-03T21:34:48.361Z,55
2016-01-03T21:35:01.767Z,55
2016-01-03T21:35:14.880Z,56
2016-01-03T21:35:28.164Z,56
2016-01-03T21:35:41.429Z,56
2016-01-03T21:35:54.867Z,55
2016-01-03T21:36:08.054Z,56
2016-01-03T21:36:21.370Z,55
2016-01-03T21:36:34.557Z,55
2016-01-03T21:36:47.807Z,56
2016-01-03T21:37:01.260Z,56
2016-01-03T21:37:14.495Z,56
2016-01-03T21:37:27.778Z,56
2016-01-03T21:37:41.044Z,56
2016-01-03T21:37:54.278Z,56
2016-01-03T21:38:07.716Z,56
2016-01-03T21:38:21.312Z,56
2016-01-03T21:38:42.672Z,55
2016-01-03T21:38:58.469Z,56
2016-01-03T21:39:12.594Z,56
2016-01-03T21:39:25.737Z,56
2016-01-03T21:39:40.815Z,56
2016-01-03T21:39:56.409Z,56
2016-01-03T21:40:09.472Z,56
2016-01-03T21:40:24.506Z,56
2016-01-03T21:40:37.740Z,56
2016-01-03T21:40:50.881Z,56
2016-01-03T21:41:04.396Z,56
2016-01-03T21:41:18.303Z,56
2016-01-03T21:41:32.633Z,56
2016-01-03T21:41:47.117Z,56
2016-01-03T21:42:00.430Z,56
2016-01-03T21:42:15.695Z,56
2016-01-03T21:42:30.136Z,56
2016-01-03T21:42:44.370Z,56
2016-01-03T21:42:58.823Z,56
2016-01-03T21:43:12.105Z,56
2016-01-03T21:43:25.279Z,56
2016-01-03T21:43:38.451Z,56
2016-01-03T21:43:51.639Z,56
2016-01-03T21:44:06.529Z,56
2016-01-03T21:44:23.953Z,56
2016-01-03T21:44:39.063Z,56
2016-01-03T21:44:54.031Z,56
2016-01-03T21:45:11.047Z,56
2016-01-03T21:45:24.175Z,56
2016-01-03T21:45:37.300Z,56
2016-01-03T21:45:50.519Z,56
2016-01-03T21:46:06.691Z,56
2016-01-03T21:46:19.847Z,56
2016-01-03T21:46:34.333Z,56
2016-01-03T21:46:47.490Z,56
2016-01-03T21:47:00.786Z,56
2016-01-03T21:47:13.943Z,56
2016-01-03T21:47:27.650Z,56
2016-01-03T21:47:41.556Z,56
2016-01-03T21:47:54.759Z,56
2016-01-03T21:48:07.900Z,56
2016-01-03T21:48:21.152Z,56
2016-01-03T21:48:35.292Z,56
2016-01-03T21:48:49.355Z,56
2016-01-03T21:49:02.574Z,56
2016-01-03T21:49:15.777Z,56
2016-01-03T21:49:28.920Z,56
2016-01-03T21:49:46.139Z,56
2016-01-03T21:50:02.108Z,56
2016-01-03T21:50:17.342Z,56
2016-01-03T21:50:30.751Z,56
2016-01-03T21:50:45.204Z,56
2016-01-03T21:50:58.547Z,56
2016-01-03T21:51:13.157Z,56
2016-01-03T21:51:26.722Z,56
2016-01-03T21:51:40.504Z,56
2016-01-03T21:51:53.707Z,56
2016-01-03T21:52:07.285Z,56
2016-01-03T21:52:22.147Z,56
2016-01-03T21:52:35.475Z,56
2016-01-03T21:52:51.194Z,56
2016-01-03T21:53:04.413Z,56
2016-01-03T21:53:20.085Z,56
2016-01-03T21:53:33.306Z,56
2016-01-03T21:53:49.806Z,56
2016-01-03T21:54:05.088Z,56
2016-01-03T21:54:18.369Z,56
2016-01-03T21:54:31.574Z,56
2016-01-03T21:54:44.683Z,56
2016-01-03T21:54:58.090Z,56
2016-01-03T21:55:11.324Z,56
2016-01-03T21:55:24.530Z,56
2016-01-03T21:55:37.686Z,56
2016-01-03T21:55:50.921Z,55
2016-01-03T21:56:04.171Z,55
2016-01-03T21:56:17.436Z,55
2016-01-03T21:56:30.549Z,55
2016-01-03T21:56:43.705Z,55
2016-01-03T21:56:56.971Z,55
2016-01-03T21:57:12.127Z,55
2016-01-03T21:57:29.458Z,55
2016-01-03T21:57:45.036Z,55
2016-01-03T21:57:59.146Z,55
2016-01-03T21:58:12.802Z,55
2016-01-03T21:58:26.617Z,55
2016-01-03T21:58:40.883Z,55
2016-01-03T21:58:54.258Z,55
2016-01-03T21:59:07.539Z,55
2016-01-03T21:59:20.961Z,55
2016-01-03T21:59:34.088Z,55
2016-01-03T21:59:47.276Z,55
2016-01-03T22:00:00.479Z,55
2016-01-03T22:00:13.557Z,55
2016-01-03T22:00:26.684Z,55
2016-01-03T22:00:39.903Z,55
2016-01-03T22:00:53.028Z,56
2016-01-03T22:01:06.512Z,56
2016-01-03T22:01:20.434Z,56
2016-01-03T22:01:33.687Z,55
2016-01-03T22:01:48.077Z,55
2016-01-03T22:02:08.656Z,55
2016-01-03T22:02:21.906Z,55
2016-01-03T22:02:35.253Z,56
2016-01-03T22:02:51.222Z,56
2016-01-03T22:03:04.456Z,56
2016-01-03T22:03:17.691Z,55
2016-01-03T22:03:30.849Z,55
2016-01-03T22:03:43.974Z,55
2016-01-03T22:03:57.193Z,55
2016-01-03T22:04:10.333Z,55
2016-01-03T22:04:23.380Z,55
2016-01-03T22:04:36.524Z,55
2016-01-03T22:04:49.618Z,55
2016-01-03T22:05:02.868Z,55
2016-01-03T22:05:16.040Z,55
2016-01-03T22:05:29.120Z,55
2016-01-03T22:05:42.354Z,55
2016-01-03T22:05:55.557Z,55
2016-01-03T22:06:08.635Z,55
2016-01-03T22:06:21.807Z,55
2016-01-03T22:06:35.013Z,55
2016-01-03T22:06:48.154Z,55
2016-01-03T22:07:01.295Z,55
2016-01-03T22:07:14.513Z,55
2016-01-03T22:07:27.685Z,55
2016-01-03T22:07:40.906Z,55
2016-01-03T22:07:53.968Z,55
2016-01-03T22:08:07.172Z,55
2016-01-03T22:08:20.359Z,55
2016-01-03T22:08:33.471Z,55
2016-01-03T22:08:47.393Z,55
2016-01-03T22:09:00.612Z,55
2016-01-03T22:09:13.675Z,55
2016-01-03T22:09:26.846Z,55
2016-01-03T22:09:40.053Z,55
2016-01-03T22:09:53.209Z,55
2016-01-03T22:10:06.381Z,55
2016-01-03T22:10:19.615Z,55
2016-01-03T22:10:32.774Z,55
2016-01-03T22:10:45.931Z,55
2016-01-03T22:10:59.165Z,55
2016-01-03T22:11:13.056Z,55
2016-01-03T22:11:26.134Z,55
2016-01-03T22:11:39.309Z,55
2016-01-03T22:11:52.543Z,55
2016-01-03T22:12:05.684Z,55
2016-01-03T22:12:18.887Z,55
2016-01-03T22:12:32.092Z,55
2016-01-03T22:12:45.186Z,55
2016-01-03T22:12:58.373Z,55
2016-01-03T22:13:11.545Z,55
2016-01-03T22:13:24.795Z,55
2016-01-03T22:13:38.126Z,55
2016-01-03T22:13:51.235Z,55
2016-01-03T22:14:04.345Z,55
2016-01-03T22:14:17.532Z,55
2016-01-03T22:14:30.657Z,55
2016-01-03T22:14:43.800Z,55
2016-01-03T22:14:57.003Z,55
2016-01-03T22:15:10.081Z,55
2016-01-03T22:15:23.222Z,55
2016-01-03T22:15:36.444Z,55
2016-01-03T22:15:49.569Z,55
2016-01-03T22:16:02.787Z,55
2016-01-03T22:16:15.897Z,55
2016-01-03T22:16:29.037Z,55
2016-01-03T22:16:42.243Z,55
2016-01-03T22:16:55.353Z,55
2016-01-03T22:17:08.509Z,55
2016-01-03T22:17:21.697Z,55